createdAt,value
2022-11-30T00:00:00.732Z,41.70
2022-11-30T00:05:00.738Z,39.60
2022-11-30T00:10:00.558Z,44.30
2022-11-30T00:15:00.455Z,42.50
2022-11-30T00:20:00.361Z,43.00
2022-11-30T00:25:00.381Z,40.70
2022-11-30T00:30:00.247Z,43.40
2022-11-30T00:35:00.285Z,40.30
2022-11-30T00:40:00.181Z,40.50
2022-11-30T00:45:00.084Z,40.50
2022-11-30T00:49:59.996Z,40.80
2022-11-30T00:55:03.645Z,41.50
2022-11-30T00:59:59.851Z,39.30
2022-11-30T01:04:59.771Z,38.40
2022-11-30T01:09:59.712Z,37.00
2022-11-30T01:14:59.694Z,35.10
2022-11-30T01:19:59.639Z,36.70
2022-11-30T01:24:59.616Z,38.70
2022-11-30T01:29:59.688Z,38.00
2022-11-30T01:34:59.465Z,38.20
2022-11-30T01:39:59.382Z,37.10
2022-11-30T01:44:59.546Z,36.00
2022-11-30T01:49:59.267Z,38.10
2022-11-30T01:54:59.178Z,39.10
2022-11-30T01:59:59.214Z,35.90
2022-11-30T02:04:59.054Z,35.70
2022-11-30T02:09:58.958Z,37.80
2022-11-30T02:14:58.889Z,37.20
2022-11-30T02:19:58.842Z,35.90
2022-11-30T02:24:58.822Z,37.30
2022-11-30T02:29:58.737Z,38.20
2022-11-30T02:34:58.658Z,36.40
2022-11-30T02:39:58.560Z,37.90
2022-11-30T02:44:58.496Z,38.90
2022-11-30T02:49:58.423Z,38.30
2022-11-30T02:54:58.397Z,37.90
2022-11-30T02:59:58.320Z,39.30
2022-11-30T03:04:58.229Z,36.40
2022-11-30T03:09:58.199Z,39.10
2022-11-30T03:14:58.090Z,38.70
2022-11-30T03:19:58.075Z,36.40
2022-11-30T03:24:57.956Z,37.60
2022-11-30T03:29:57.933Z,37.40
2022-11-30T03:34:57.884Z,39.50
2022-11-30T03:39:58.531Z,39.20
2022-11-30T03:44:57.706Z,37.30
2022-11-30T03:49:57.651Z,41.60
2022-11-30T03:54:57.733Z,40.60
2022-11-30T03:59:57.516Z,40.50
2022-11-30T04:04:57.482Z,43.40
2022-11-30T04:09:57.387Z,40.00
2022-11-30T04:14:57.322Z,40.80
2022-11-30T04:20:01.255Z,42.30
2022-11-30T04:24:57.187Z,44.20
2022-11-30T04:29:57.154Z,42.70
2022-11-30T04:34:57.036Z,45.80
2022-11-30T04:39:57.059Z,46.00
2022-11-30T04:44:56.986Z,47.20
2022-11-30T04:49:56.870Z,47.20
2022-11-30T04:54:56.798Z,47.30
2022-11-30T04:59:56.823Z,48.60
2022-11-30T05:04:56.681Z,47.70
2022-11-30T05:09:56.606Z,47.50
2022-11-30T05:14:56.570Z,47.00
2022-11-30T05:19:56.474Z,44.70
2022-11-30T05:24:56.404Z,46.10
2022-11-30T05:29:56.389Z,43.50
2022-11-30T05:34:56.455Z,41.90
2022-11-30T05:39:56.279Z,41.70
2022-11-30T05:44:56.202Z,39.80
2022-11-30T05:49:56.114Z,39.60
2022-11-30T05:54:56.071Z,39.60
2022-11-30T05:59:55.979Z,40.10
2022-11-30T06:04:55.975Z,38.20
2022-11-30T06:09:55.870Z,36.30
2022-11-30T06:14:55.801Z,36.40
2022-11-30T06:19:55.758Z,37.50
2022-11-30T06:24:55.650Z,39.80
2022-11-30T06:29:55.700Z,35.80
2022-11-30T06:34:55.619Z,39.30
2022-11-30T06:40:06.403Z,38.40
2022-11-30T06:44:56.554Z,39.60
2022-11-30T06:49:55.460Z,40.60
2022-11-30T06:54:55.652Z,38.30
2022-11-30T06:59:55.417Z,38.70
2022-11-30T07:04:55.257Z,38.00
2022-11-30T07:09:55.117Z,37.90
2022-11-30T07:14:55.186Z,35.80
2022-11-30T07:19:54.954Z,34.70
2022-11-30T07:24:54.932Z,34.90
2022-11-30T07:29:54.814Z,38.00
2022-11-30T07:34:55.019Z,37.70
2022-11-30T07:39:54.828Z,37.00
2022-11-30T07:44:58.703Z,36.90
2022-11-30T07:49:55.177Z,36.90
2022-11-30T07:54:54.819Z,36.10
2022-11-30T07:59:54.458Z,34.20
2022-11-30T08:04:54.418Z,35.90
2022-11-30T08:09:54.324Z,36.90
2022-11-30T08:15:18.809Z,33.10
2022-11-30T08:19:55.222Z,36.00
2022-11-30T08:24:54.141Z,33.10
2022-11-30T08:29:54.853Z,34.00
2022-11-30T08:34:54.009Z,35.40
2022-11-30T08:39:53.950Z,34.60
2022-11-30T08:44:53.859Z,33.40
2022-11-30T08:49:53.963Z,36.70
2022-11-30T08:54:54.111Z,35.00
2022-11-30T08:59:54.539Z,33.70
2022-11-30T09:04:53.599Z,33.80
2022-11-30T09:09:53.508Z,35.60
2022-11-30T09:14:57.961Z,33.30
2022-11-30T09:19:53.433Z,37.50
2022-11-30T09:24:53.325Z,35.90
2022-11-30T09:29:54.045Z,35.90
2022-11-30T09:34:54.372Z,35.40
2022-11-30T09:39:53.146Z,35.60
2022-11-30T09:44:53.078Z,37.60
2022-11-30T09:49:53.056Z,34.90
2022-11-30T09:54:53.028Z,33.50
2022-11-30T09:59:53.375Z,36.00
2022-11-30T10:04:53.007Z,36.00
2022-11-30T10:10:09.350Z,36.50
2022-11-30T10:14:57.240Z,34.90
2022-11-30T10:19:53.647Z,33.80
2022-11-30T10:24:52.536Z,38.40
2022-11-30T10:29:52.540Z,34.00
2022-11-30T10:34:52.407Z,37.20
2022-11-30T10:39:52.393Z,34.50
2022-11-30T10:44:52.332Z,36.00
2022-11-30T10:49:52.497Z,33.50
2022-11-30T10:54:52.320Z,34.90
2022-11-30T10:59:52.247Z,31.60
2022-11-30T11:04:52.115Z,31.30
2022-11-30T11:09:52.104Z,31.90
2022-11-30T11:14:51.944Z,29.30
2022-11-30T11:19:51.941Z,31.70
2022-11-30T11:24:51.847Z,31.70
2022-11-30T11:29:51.753Z,30.90
2022-11-30T11:34:51.760Z,31.40
2022-11-30T11:39:51.576Z,29.40
2022-11-30T11:44:51.580Z,28.80
2022-11-30T11:49:51.553Z,29.00
2022-11-30T11:54:51.500Z,32.90
2022-11-30T11:59:51.374Z,28.70
2022-11-30T12:04:51.459Z,28.90
2022-11-30T12:09:51.220Z,27.50
2022-11-30T12:14:51.208Z,27.70
2022-11-30T12:19:51.322Z,29.00
2022-11-30T12:24:51.176Z,30.90
2022-11-30T12:29:51.033Z,30.80
2022-11-30T12:34:50.838Z,30.70
2022-11-30T12:39:50.842Z,31.80
2022-11-30T12:44:50.806Z,28.20
2022-11-30T12:49:50.726Z,30.70
2022-11-30T12:54:50.607Z,29.40
2022-11-30T12:59:50.764Z,29.40
2022-11-30T13:04:57.680Z,28.90
2022-11-30T13:09:51.700Z,29.70
2022-11-30T13:14:50.566Z,29.20
2022-11-30T13:19:50.405Z,28.20
2022-11-30T13:24:50.381Z,29.50
2022-11-30T13:29:50.240Z,30.00
2022-11-30T13:34:50.117Z,30.10
2022-11-30T13:39:50.323Z,27.10
2022-11-30T13:44:50.285Z,31.00
2022-11-30T13:49:50.190Z,27.60
2022-11-30T13:54:50.167Z,29.10
2022-11-30T13:59:49.784Z,28.50
2022-11-30T14:04:49.900Z,28.80
2022-11-30T14:09:49.964Z,28.20
2022-11-30T14:14:49.777Z,29.50
2022-11-30T14:19:50.065Z,28.50
2022-11-30T14:24:49.405Z,29.70
2022-11-30T14:29:49.594Z,29.70
2022-11-30T14:34:49.436Z,30.40
2022-11-30T14:39:49.714Z,30.10
2022-11-30T14:44:51.070Z,31.30
2022-11-30T14:49:49.427Z,31.00
2022-11-30T14:54:49.036Z,29.60
2022-11-30T14:59:49.223Z,30.80
2022-11-30T15:04:49.718Z,30.50
2022-11-30T15:09:48.987Z,30.30
2022-11-30T15:14:49.496Z,29.60
2022-11-30T15:19:49.171Z,31.90
2022-11-30T15:24:48.969Z,30.00
2022-11-30T15:29:48.752Z,31.10
2022-11-30T15:34:52.223Z,31.60
2022-11-30T15:39:49.906Z,34.70
2022-11-30T15:44:48.604Z,32.30
2022-11-30T15:49:48.654Z,31.30
2022-11-30T15:54:48.352Z,31.80
2022-11-30T15:59:48.466Z,30.10
2022-11-30T16:04:48.154Z,31.30
2022-11-30T16:09:48.354Z,33.20
2022-11-30T16:14:48.016Z,33.30
2022-11-30T16:19:48.169Z,33.50
2022-11-30T16:24:48.636Z,32.00
2022-11-30T16:29:52.161Z,34.60
2022-11-30T16:34:48.736Z,32.10
2022-11-30T16:39:47.906Z,33.20
2022-11-30T16:44:47.651Z,35.50
2022-11-30T16:49:48.096Z,33.10
2022-11-30T16:54:47.449Z,36.30
2022-11-30T16:59:50.736Z,35.70
2022-11-30T17:04:47.734Z,33.50
2022-11-30T17:09:47.301Z,32.00
2022-11-30T17:14:47.552Z,36.80
2022-11-30T17:19:49.249Z,31.10
2022-11-30T17:24:47.504Z,29.50
2022-11-30T17:29:47.034Z,31.60
2022-11-30T17:34:47.269Z,37.10
2022-11-30T17:39:46.945Z,34.80
2022-11-30T17:44:47.179Z,35.20
2022-11-30T17:49:46.763Z,34.90
2022-11-30T17:54:47.075Z,33.80
2022-11-30T17:59:46.606Z,39.80
2022-11-30T18:04:47.045Z,49.80
2022-11-30T18:09:46.531Z,56.00
2022-11-30T18:14:46.970Z,61.60
2022-11-30T18:19:46.392Z,69.20
2022-11-30T18:24:46.758Z,69.60
2022-11-30T18:29:46.244Z,68.30
2022-11-30T18:34:46.511Z,74.10
2022-11-30T18:39:46.159Z,74.50
2022-11-30T18:44:46.377Z,73.60
2022-11-30T18:49:46.061Z,74.60
2022-11-30T18:54:46.243Z,77.10
2022-11-30T18:59:48.732Z,80.40
2022-11-30T19:04:47.152Z,88.80
2022-11-30T19:09:46.627Z,77.70
2022-11-30T19:14:46.278Z,87.80
2022-11-30T19:19:45.597Z,70.80
2022-11-30T19:24:45.744Z,64.60
2022-11-30T19:29:45.471Z,66.20
2022-11-30T19:34:45.698Z,68.50
2022-11-30T19:39:45.530Z,68.10
2022-11-30T19:44:45.338Z,67.90
2022-11-30T19:49:45.228Z,71.80
2022-11-30T19:54:45.490Z,62.90
2022-11-30T19:59:45.046Z,63.10
2022-11-30T20:04:45.177Z,67.20
2022-11-30T20:09:45.269Z,66.50
2022-11-30T20:14:46.086Z,68.40
2022-11-30T20:19:45.063Z,69.90
2022-11-30T20:24:44.862Z,70.00
2022-11-30T20:29:44.667Z,75.40
2022-11-30T20:34:45.372Z,67.80
2022-11-30T20:39:46.227Z,69.20
2022-11-30T20:44:44.487Z,68.60
2022-11-30T20:49:44.578Z,64.70
2022-11-30T20:54:44.427Z,65.30
2022-11-30T20:59:44.610Z,68.40
2022-11-30T21:04:44.383Z,71.00
2022-11-30T21:09:44.255Z,66.40
2022-11-30T21:14:44.194Z,67.40
2022-11-30T21:19:44.163Z,70.00
2022-11-30T21:24:44.001Z,70.30
2022-11-30T21:29:44.035Z,71.60
2022-11-30T21:34:43.888Z,69.70
2022-11-30T21:39:43.824Z,73.00
2022-11-30T21:44:43.895Z,62.10
2022-11-30T21:49:43.631Z,66.60
2022-11-30T21:54:43.577Z,66.30
2022-11-30T21:59:43.606Z,61.70
2022-11-30T22:04:43.500Z,67.60
2022-11-30T22:09:43.382Z,63.40
2022-11-30T22:14:43.347Z,70.20
2022-11-30T22:19:43.460Z,62.90
2022-11-30T22:24:44.894Z,61.70
2022-11-30T22:29:43.116Z,58.60
2022-11-30T22:34:43.041Z,61.80
2022-11-30T22:39:43.001Z,64.80
2022-11-30T22:44:42.996Z,65.60
2022-11-30T22:49:43.066Z,69.50
2022-11-30T22:54:42.973Z,71.50
2022-11-30T22:59:42.888Z,72.20
2022-11-30T23:04:42.680Z,72.70
2022-11-30T23:09:42.614Z,71.70
2022-11-30T23:14:42.658Z,73.10
2022-11-30T23:19:42.646Z,67.50
2022-11-30T23:24:42.409Z,68.40
2022-11-30T23:29:42.537Z,69.20
2022-11-30T23:34:43.499Z,69.30
2022-11-30T23:39:42.215Z,65.30
2022-11-30T23:44:42.207Z,70.20
2022-11-30T23:49:42.234Z,70.90
2022-11-30T23:54:42.014Z,72.30
2022-11-30T23:59:42.031Z,66.10
